Time;durP1;ratioP1;P1;durP2;ratioP2;P2;SDS_P1;SDS_P2;PMS_P1;PMS_P2;Temp;Humidity;BMP_temperature;BMP_pressure;BME280_temperature;BME280_humidity;BME280_pressure;Samples;Min_cycle;Max_cycle;Signal;HPM_P1;HPM_P2
2024/03/29 00:01:30;;;;;;;2.53;0.80;;;;;;;8.48;90.43;98885.25;5063356;28;20273;-84
2024/03/29 00:03:55;;;;;;;3.05;1.00;;;;;;;8.50;90.89;98881.63;5050079;28;20027;-84
2024/03/29 00:06:20;;;;;;;3.63;1.10;;;;;;;8.48;91.21;98880.88;5065313;28;20041;-83
2024/03/29 00:08:46;;;;;;;5.03;0.93;;;;;;;8.48;91.54;98886.09;5056061;28;20059;-84
2024/03/29 00:11:12;;;;;;;1.88;1.02;;;;;;;8.49;91.49;98884.31;5064328;28;20387;-84
2024/03/29 00:13:38;;;;;;;10.73;1.10;;;;;;;8.47;91.44;98884.41;5066904;28;20285;-84
2024/03/29 00:16:03;;;;;;;7.45;1.52;;;;;;;8.51;91.41;98891.09;5068398;28;20024;-84
2024/03/29 00:18:29;;;;;;;5.30;1.05;;;;;;;8.51;91.42;98893.72;5067689;28;20040;-83
2024/03/29 00:20:54;;;;;;;2.08;0.98;;;;;;;8.54;91.18;98888.31;5068012;28;20066;-84
2024/03/29 00:23:19;;;;;;;2.95;1.00;;;;;;;8.57;91.46;98890.72;5053677;28;20023;-84
2024/03/29 00:25:44;;;;;;;3.72;0.75;;;;;;;8.55;90.80;98890.00;5066940;28;20043;-83
2024/03/29 00:28:10;;;;;;;3.55;0.82;;;;;;;8.54;90.96;98893.53;5063687;28;20029;-84
2024/03/29 00:30:35;;;;;;;3.67;1.27;;;;;;;8.53;90.37;98885.78;5045904;28;20025;-84
2024/03/29 00:33:01;;;;;;;2.90;0.98;;;;;;;8.53;90.14;98883.19;5068045;28;20033;-83
2024/03/29 00:35:26;;;;;;;7.53;1.17;;;;;;;8.52;90.27;98895.41;5064402;28;20036;-84
2024/03/29 00:37:51;;;;;;;4.00;1.00;;;;;;;8.57;90.46;98884.69;5064715;28;20129;-84
2024/03/29 00:40:17;;;;;;;5.13;0.88;;;;;;;8.65;90.67;98864.97;5060984;28;20354;-83
2024/03/29 00:42:42;;;;;;;4.18;1.05;;;;;;;8.63;90.40;98889.50;5058170;28;20029;-84
2024/03/29 00:45:08;;;;;;;8.77;1.33;;;;;;;8.57;90.30;98893.34;5059082;28;20201;-84
2024/03/29 00:47:33;;;;;;;2.67;0.80;;;;;;;8.56;89.71;98893.44;5063457;28;20351;-84
2024/03/29 00:50:00;;;;;;;4.75;1.20;;;;;;;8.50;90.02;98909.47;5062479;28;20024;-84
2024/03/29 00:52:25;;;;;;;4.32;1.00;;;;;;;8.48;90.27;98896.53;5063351;28;20082;-84
2024/03/29 00:54:51;;;;;;;6.15;1.30;;;;;;;8.50;90.16;98893.84;5061099;28;20032;-84
2024/03/29 00:57:16;;;;;;;6.57;1.40;;;;;;;8.50;89.65;98899.88;5063588;28;20065;-83
2024/03/29 00:59:43;;;;;;;6.03;1.17;;;;;;;8.51;89.68;98908.53;5061657;28;20032;-84
2024/03/29 01:02:09;;;;;;;10.00;0.98;;;;;;;8.50;89.83;98907.72;5063848;28;20040;-83
2024/03/29 01:04:34;;;;;;;5.97;1.15;;;;;;;8.50;90.01;98905.09;5064469;28;20329;-84
2024/03/29 01:06:59;;;;;;;4.60;1.00;;;;;;;8.52;89.42;98913.66;5057346;28;20039;-83
2024/03/29 01:09:25;;;;;;;3.35;1.08;;;;;;;8.50;89.44;98894.66;5067695;28;20029;-84
2024/03/29 01:11:51;;;;;;;4.05;0.90;;;;;;;8.51;89.73;98896.31;5047203;28;20090;-84
2024/03/29 01:14:16;;;;;;;4.30;1.05;;;;;;;8.53;89.75;98896.22;5059976;28;20485;-84
2024/03/29 01:16:42;;;;;;;9.70;1.23;;;;;;;8.54;89.70;98883.09;5065145;28;20193;-84
2024/03/29 01:19:10;;;;;;;4.80;0.95;;;;;;;8.55;89.58;98899.56;5056228;28;20036;-84
2024/03/29 01:21:35;;;;;;;3.30;1.10;;;;;;;8.57;89.97;98908.16;5060352;28;20029;-84
2024/03/29 01:24:01;;;;;;;6.72;1.52;;;;;;;8.60;89.87;98918.38;5066181;28;20033;-83
2024/03/29 01:26:26;;;;;;;6.35;1.60;;;;;;;8.60;89.33;98892.28;5061043;28;20044;-84
2024/03/29 01:28:51;;;;;;;5.20;1.02;;;;;;;8.61;89.47;98900.03;5063899;28;20051;-84
2024/03/29 01:31:17;;;;;;;7.93;1.38;;;;;;;8.57;89.79;98895.94;5044996;28;20028;-84
2024/03/29 01:33:42;;;;;;;4.07;1.30;;;;;;;8.57;89.63;98903.78;5063320;28;20118;-84
2024/03/29 01:36:08;;;;;;;9.63;1.33;;;;;;;8.58;89.65;98900.22;5062206;28;20040;-83
2024/03/29 01:38:34;;;;;;;4.13;1.25;;;;;;;8.56;89.37;98891.66;5074588;28;20244;-83
2024/03/29 01:40:59;;;;;;;4.68;1.30;;;;;;;8.54;89.20;98893.53;5071058;28;20064;-83
2024/03/29 01:43:27;;;;;;;5.95;1.23;;;;;;;8.58;88.03;98889.78;5054989;28;20216;-83
2024/03/29 01:45:54;;;;;;;8.88;1.33;;;;;;;8.59;88.94;98893.25;5063636;28;20043;-83
2024/03/29 01:48:22;;;;;;;5.68;1.05;;;;;;;8.55;89.23;98892.59;5063437;28;20024;-83
2024/03/29 01:50:48;;;;;;;11.95;1.50;;;;;;;8.55;88.46;98882.16;5055599;28;20366;-84
2024/03/29 01:53:15;;;;;;;3.63;1.02;;;;;;;8.55;88.76;98891.75;5056147;28;20037;-84
2024/03/29 01:55:41;;;;;;;5.10;1.48;;;;;;;8.55;88.86;98899.56;5068407;28;20032;-84
2024/03/29 01:58:08;;;;;;;3.03;0.90;;;;;;;8.53;88.71;98891.00;5074625;28;20300;-84
2024/03/29 02:00:37;;;;;;;10.27;1.55;;;;;;;8.51;89.07;98885.06;5045710;28;20066;-84
2024/03/29 02:03:03;;;;;;;5.00;1.02;;;;;;;8.51;88.75;98893.72;5055850;28;20057;-83
2024/03/29 02:05:30;;;;;;;2.30;0.88;;;;;;;8.53;88.87;98899.69;5055676;28;20114;-84
2024/03/29 02:07:56;;;;;;;7.07;1.42;;;;;;;8.52;88.20;98898.00;5064888;28;20036;-84
2024/03/29 02:10:22;;;;;;;6.78;0.90;;;;;;;8.54;88.48;98906.56;5069906;28;20047;-83
2024/03/29 02:12:48;;;;;;;5.00;1.23;;;;;;;8.55;88.86;98903.03;5065219;28;20057;-84
2024/03/29 02:15:16;;;;;;;4.15;0.93;;;;;;;8.53;88.33;98898.84;5054751;28;20025;-84
2024/03/29 02:17:42;;;;;;;5.40;1.58;;;;;;;8.53;88.51;98899.69;5060438;28;20453;-83
2024/03/29 02:20:08;;;;;;;6.95;1.23;;;;;;;8.52;88.75;98913.66;5055930;28;20036;-84
2024/03/29 02:22:40;;;;;;;2.90;1.20;;;;;;;8.47;88.51;98928.75;5061571;28;20435;-84
2024/03/29 02:25:06;;;;;;;6.10;1.33;;;;;;;8.48;88.22;98927.84;5054898;28;20063;-84
2024/03/29 02:27:31;;;;;;;6.10;1.08;;;;;;;8.47;88.25;98920.94;5069534;28;20259;-84
2024/03/29 02:29:56;;;;;;;10.13;1.83;;;;;;;8.46;88.73;98932.31;5066689;28;20032;-84
2024/03/29 02:32:22;;;;;;;5.05;1.10;;;;;;;8.46;88.87;98932.31;5050758;28;20043;-84
2024/03/29 02:34:47;;;;;;;4.20;1.23;;;;;;;8.49;88.87;98932.09;5060865;28;20033;-84
2024/03/29 02:37:12;;;;;;;2.60;0.90;;;;;;;8.47;89.01;98923.53;5062980;28;20414;-83
2024/03/29 02:39:38;;;;;;;5.15;0.82;;;;;;;8.43;88.65;98925.50;5063327;28;20024;-84
2024/03/29 02:42:03;;;;;;;2.75;0.60;;;;;;;8.43;89.30;98922.06;5058661;28;20031;-83
2024/03/29 02:44:29;;;;;;;3.53;1.00;;;;;;;8.45;89.38;98918.41;5060780;28;20025;-84
2024/03/29 02:46:54;;;;;;;2.80;0.80;;;;;;;8.47;89.49;98920.94;5057687;28;20047;-84
2024/03/29 02:49:19;;;;;;;4.07;0.80;;;;;;;8.46;89.04;98932.31;5064997;28;20094;-83
2024/03/29 02:51:45;;;;;;;4.25;0.90;;;;;;;8.44;88.71;98935.00;5044936;28;20150;-83
2024/03/29 02:54:10;;;;;;;7.13;0.85;;;;;;;8.43;88.73;98930.72;5039964;28;20037;-83
2024/03/29 02:56:35;;;;;;;5.25;1.23;;;;;;;8.45;88.98;98941.06;5065465;28;20272;-84
2024/03/29 02:59:00;;;;;;;3.53;0.63;;;;;;;8.48;89.05;98926.97;5062746;28;20378;-84
2024/03/29 03:01:26;;;;;;;2.78;0.98;;;;;;;8.47;88.92;98927.94;5061882;28;20029;-84
2024/03/29 03:03:51;;;;;;;8.68;1.58;;;;;;;8.44;88.88;98927.19;5039933;28;20031;-84
2024/03/29 03:06:16;;;;;;;6.57;0.82;;;;;;;8.44;89.06;98936.75;5046825;28;20455;-84
2024/03/29 03:11:26;;;;;;;2.67;1.05;;;;;;;8.47;88.92;98939.19;5066678;28;20039;-83
2024/03/29 03:13:51;;;;;;;5.03;1.08;;;;;;;8.49;88.84;98931.28;5057664;28;20294;-84
2024/03/29 03:16:16;;;;;;;3.83;0.80;;;;;;;8.47;87.92;98940.97;5065722;28;20040;-84
2024/03/29 03:18:42;;;;;;;2.60;0.70;;;;;;;8.42;88.40;98938.63;5057963;28;20029;-84
2024/03/29 03:21:07;;;;;;;4.10;1.17;;;;;;;8.44;88.49;98968.06;5068774;28;20108;-85
2024/03/29 03:23:32;;;;;;;1.85;0.60;;;;;;;8.44;88.45;98945.44;5062313;28;20036;-84
2024/03/29 03:25:59;;;;;;;3.05;0.80;;;;;;;8.46;88.91;98942.75;5071887;28;20024;-85
2024/03/29 03:28:25;;;;;;;4.03;0.80;;;;;;;8.53;89.07;98946.66;5057293;28;20312;-85
2024/03/29 03:30:52;;;;;;;1.38;0.50;;;;;;;8.50;87.86;98952.06;5072805;28;20056;-85
2024/03/29 03:33:18;;;;;;;2.50;0.60;;;;;;;8.48;88.13;98955.66;5065057;28;20044;-84
2024/03/29 03:35:44;;;;;;;6.55;0.82;;;;;;;8.50;88.23;98952.06;5068393;28;20033;-85
2024/03/29 03:38:09;;;;;;;1.58;0.65;;;;;;;8.48;87.83;98947.84;5061218;28;20370;-85
2024/03/29 03:40:35;;;;;;;1.85;0.55;;;;;;;8.50;88.03;98959.06;5047961;28;20025;-85
2024/03/29 03:43:02;;;;;;;2.97;1.02;;;;;;;8.49;88.25;98949.53;5069789;28;20373;-85
2024/03/29 03:45:27;;;;;;;1.70;0.70;;;;;;;8.45;88.44;98944.50;5067626;28;20094;-85
2024/03/29 03:47:53;;;;;;;1.95;0.80;;;;;;;8.47;88.33;98946.19;5068823;28;20036;-84
2024/03/29 03:50:18;;;;;;;1.77;0.70;;;;;;;8.49;88.15;98941.72;5071768;28;20115;-84
2024/03/29 03:52:43;;;;;;;3.63;0.90;;;;;;;8.44;88.44;98950.66;5045585;28;20039;-84
2024/03/29 03:55:09;;;;;;;1.13;0.50;;;;;;;8.44;88.04;98963.72;5060756;28;20052;-84
2024/03/29 03:57:34;;;;;;;2.97;0.55;;;;;;;8.47;88.08;98965.28;5068778;28;20134;-85
2024/03/29 04:00:00;;;;;;;3.00;0.38;;;;;;;8.50;88.40;98967.72;5061785;28;20032;-85
2024/03/29 04:02:25;;;;;;;2.90;0.60;;;;;;;8.51;88.48;98969.38;5062496;28;20317;-85
2024/03/29 04:04:51;;;;;;;2.95;0.70;;;;;;;8.47;88.41;98974.88;5071770;28;20029;-85
2024/03/29 04:07:16;;;;;;;2.15;0.68;;;;;;;8.44;88.34;98962.84;5056750;28;20104;-85
2024/03/29 04:09:41;;;;;;;1.50;0.45;;;;;;;8.47;88.36;98967.06;5045092;28;20063;-85
2024/03/29 04:12:07;;;;;;;1.80;0.45;;;;;;;8.43;88.14;98971.63;5056502;28;20040;-85
2024/03/29 04:14:32;;;;;;;1.10;0.65;;;;;;;8.48;88.34;98966.09;5063440;28;20151;-85
2024/03/29 04:16:57;;;;;;;1.60;0.52;;;;;;;8.43;89.19;98972.47;5062861;28;20335;-85
2024/03/29 04:19:23;;;;;;;0.50;0.30;;;;;;;8.43;88.92;98967.25;5062322;28;20212;-85
2024/03/29 04:21:48;;;;;;;0.95;0.60;;;;;;;8.44;89.13;98965.47;5048775;28;20220;-85
2024/03/29 04:24:13;;;;;;;1.38;0.55;;;;;;;8.43;88.94;98962.03;5059798;28;20423;-84
2024/03/29 04:26:39;;;;;;;1.40;0.47;;;;;;;8.46;89.29;98966.22;5064818;28;20321;-85
2024/03/29 04:29:04;;;;;;;2.60;0.40;;;;;;;8.46;89.36;98976.66;5068362;28;20258;-84
2024/03/29 04:31:30;;;;;;;1.00;0.60;;;;;;;8.49;89.65;98963.41;5063469;28;20115;-84
2024/03/29 04:33:55;;;;;;;1.83;0.70;;;;;;;8.47;89.58;98967.88;5051032;28;20051;-84
2024/03/29 04:36:20;;;;;;;1.35;0.38;;;;;;;8.44;89.93;98971.53;5062427;28;21111;-84
2024/03/29 04:38:47;;;;;;;2.42;0.82;;;;;;;8.43;89.88;98971.63;5061073;28;20043;-84
2024/03/29 04:41:12;;;;;;;0.40;0.35;;;;;;;8.41;90.64;98963.84;5071879;28;20041;-84
2024/03/29 04:43:39;;;;;;;0.73;0.55;;;;;;;8.42;90.92;98965.59;5055494;28;20290;-85
2024/03/29 04:46:12;;;;;;;0.63;0.50;;;;;;;8.41;91.05;98968.25;5059350;28;20264;-85
2024/03/29 04:48:38;;;;;;;1.25;0.63;;;;;;;8.40;91.41;98985.69;5061335;28;20315;-84
2024/03/29 04:51:04;;;;;;;0.77;0.50;;;;;;;8.39;91.47;98989.19;5054366;28;20032;-85
2024/03/29 04:53:30;;;;;;;0.80;0.50;;;;;;;8.37;91.73;98979.81;5037159;28;20048;-85
2024/03/29 04:55:56;;;;;;;0.75;0.30;;;;;;;8.37;92.24;98983.25;5061274;28;20028;-84
2024/03/29 04:58:22;;;;;;;0.80;0.50;;;;;;;8.29;92.81;98990.69;5064103;28;20108;-84
2024/03/29 05:00:49;;;;;;;1.45;0.30;;;;;;;8.31;92.86;98999.25;5057219;28;20082;-84
2024/03/29 05:03:14;;;;;;;0.60;0.40;;;;;;;8.33;92.87;98983.50;5067897;28;20043;-85
2024/03/29 05:05:39;;;;;;;1.48;0.40;;;;;;;8.29;93.48;98977.66;5054978;28;20032;-85
2024/03/29 05:08:05;;;;;;;1.00;0.40;;;;;;;8.28;93.50;98989.03;5066137;28;20353;-85
2024/03/29 05:10:30;;;;;;;1.13;0.50;;;;;;;8.29;93.20;98992.47;5066159;28;20313;-85
2024/03/29 05:12:56;;;;;;;0.90;0.55;;;;;;;8.26;93.47;98975.25;5061468;28;20411;-86
2024/03/29 05:15:21;;;;;;;0.57;0.40;;;;;;;8.27;94.17;98982.94;5055081;28;20059;-85
2024/03/29 05:17:46;;;;;;;0.85;0.65;;;;;;;8.22;94.49;98995.44;5036976;28;20036;-85
2024/03/29 05:20:12;;;;;;;0.73;0.22;;;;;;;8.18;94.63;98996.53;5054609;28;20033;-85
2024/03/29 05:22:37;;;;;;;0.90;0.40;;;;;;;8.14;94.82;98996.84;5069130;28;20113;-85
2024/03/29 05:25:03;;;;;;;0.95;0.60;;;;;;;8.12;95.43;98996.94;5049155;28;20320;-85
2024/03/29 05:27:29;;;;;;;0.30;0.30;;;;;;;8.16;95.35;99001.03;5073407;28;20040;-85
2024/03/29 05:29:55;;;;;;;0.43;0.32;;;;;;;8.14;95.65;99013.31;5066272;28;20040;-85
2024/03/29 05:32:20;;;;;;;0.80;0.60;;;;;;;8.15;95.95;99015.00;5063781;28;20112;-85
2024/03/29 05:34:46;;;;;;;0.38;0.38;;;;;;;8.14;96.22;99002.88;5060245;28;20029;-85
2024/03/29 05:37:12;;;;;;;2.17;0.45;;;;;;;8.12;96.69;99014.34;5037614;28;20420;-86
2024/03/29 05:39:37;;;;;;;0.32;0.30;;;;;;;8.11;96.79;99021.31;5055261;28;20036;-85
2024/03/29 05:42:02;;;;;;;0.40;0.40;;;;;;;8.13;97.08;99018.63;5062253;28;20029;-85
2024/03/29 05:44:28;;;;;;;1.48;0.40;;;;;;;8.12;97.33;99020.41;5065872;28;20323;-85
2024/03/29 05:46:53;;;;;;;1.80;0.30;;;;;;;8.12;97.45;99023.00;5063641;28;20021;-85
2024/03/29 05:49:18;;;;;;;0.60;0.40;;;;;;;8.10;97.58;99030.09;5052600;28;20355;-84
2024/03/29 05:51:44;;;;;;;0.82;0.52;;;;;;;8.07;97.75;99038.91;5054192;28;20363;-85
2024/03/29 05:54:09;;;;;;;2.05;0.57;;;;;;;8.06;98.27;99041.63;5057117;28;20037;-84
2024/03/29 05:56:35;;;;;;;0.63;0.40;;;;;;;8.07;98.22;99041.50;5060510;28;20040;-84
2024/03/29 05:59:00;;;;;;;2.83;0.35;;;;;;;8.02;98.69;99040.09;5071893;28;20069;-84
2024/03/29 06:01:26;;;;;;;2.83;0.60;;;;;;;8.05;99.20;99043.38;5074003;28;20043;-85
2024/03/29 06:03:52;;;;;;;2.00;0.45;;;;;;;8.05;99.43;99040.75;5073776;28;20119;-84
2024/03/29 06:06:22;;;;;;;1.30;0.85;;;;;;;8.09;99.53;99051.84;5062366;28;20041;-85
2024/03/29 06:08:47;;;;;;;1.55;0.40;;;;;;;8.08;99.84;99044.97;5071452;28;20094;-84
2024/03/29 06:11:12;;;;;;;0.65;0.30;;;;;;;8.12;99.97;99051.69;5067813;28;20059;-84
2024/03/29 06:19:08;;;;;;;1.92;0.60;;;;;;;8.10;100.00;99076.19;5075807;28;20062;-84
2024/03/29 06:21:38;;;;;;;0.85;0.50;;;;;;;8.13;100.00;99078.59;5064073;28;20107;-85
2024/03/29 06:24:08;;;;;;;0.60;0.47;;;;;;;8.18;100.00;99080.00;5058553;28;20032;-85
2024/03/29 06:26:34;;;;;;;0.70;0.40;;;;;;;8.17;100.00;99077.50;5061500;28;20331;-85
2024/03/29 06:29:03;;;;;;;0.82;0.63;;;;;;;8.16;100.00;99076.63;5066371;28;20037;-86
2024/03/29 06:31:29;;;;;;;3.30;0.85;;;;;;;8.20;100.00;99078.13;5067273;28;20328;-85
2024/03/29 06:33:55;;;;;;;1.05;0.80;;;;;;;8.22;100.00;99071.09;5061884;28;20098;-84
2024/03/29 06:36:20;;;;;;;0.82;0.60;;;;;;;8.22;100.00;99065.88;5071264;28;20059;-85
2024/03/29 06:38:45;;;;;;;2.05;0.60;;;;;;;8.23;100.00;99072.75;5067080;28;20069;-85
2024/03/29 06:41:12;;;;;;;0.63;0.50;;;;;;;8.21;100.00;99063.34;5066864;28;20230;-84
2024/03/29 06:43:37;;;;;;;3.42;0.90;;;;;;;8.23;100.00;99070.13;5064020;28;20028;-85
2024/03/29 06:46:03;;;;;;;1.75;0.43;;;;;;;8.22;100.00;99052.81;5060966;28;20222;-85
2024/03/29 06:48:31;;;;;;;2.88;1.27;;;;;;;8.25;100.00;99057.00;5068211;28;20113;-84
2024/03/29 06:50:57;;;;;;;1.23;0.60;;;;;;;8.26;100.00;99069.97;5077248;28;20404;-85
2024/03/29 06:53:22;;;;;;;1.00;0.60;;;;;;;8.32;100.00;99070.53;5076745;28;20362;-85
2024/03/29 06:55:49;;;;;;;0.50;0.50;;;;;;;8.35;100.00;99065.97;5076797;28;20055;-84
2024/03/29 06:58:15;;;;;;;1.52;0.60;;;;;;;8.40;100.00;99071.75;5074840;28;20036;-85
2024/03/29 07:00:40;;;;;;;0.75;0.65;;;;;;;8.42;100.00;99069.06;5076710;28;20027;-85
2024/03/29 07:03:05;;;;;;;2.55;0.68;;;;;;;8.43;100.00;99068.97;5077250;28;20318;-85
2024/03/29 07:05:31;;;;;;;1.58;0.73;;;;;;;8.45;100.00;99068.88;5077065;28;20082;-84
2024/03/29 07:07:59;;;;;;;0.70;0.63;;;;;;;8.48;100.00;99075.69;5076554;28;20028;-84
2024/03/29 07:10:24;;;;;;;3.10;0.98;;;;;;;8.48;100.00;99067.84;5076454;28;20388;-85
2024/03/29 07:12:49;;;;;;;1.60;0.57;;;;;;;8.49;100.00;99074.75;5057200;28;20060;-85
2024/03/29 07:15:15;;;;;;;2.42;0.70;;;;;;;8.53;100.00;99077.09;5056389;28;20079;-84
2024/03/29 07:17:40;;;;;;;1.95;0.98;;;;;;;8.59;100.00;99074.13;5061008;28;20091;-85
2024/03/29 07:20:08;;;;;;;1.50;0.85;;;;;;;8.61;100.00;99081.84;5061282;28;20020;-85
2024/03/29 07:22:33;;;;;;;1.38;0.70;;;;;;;8.64;100.00;99089.47;5064952;28;20048;-84
2024/03/29 07:24:58;;;;;;;0.70;0.70;;;;;;;8.66;100.00;99095.47;5059571;28;20029;-85
2024/03/29 07:27:24;;;;;;;0.73;0.60;;;;;;;8.64;100.00;99097.31;5063317;28;20028;-84
2024/03/29 07:29:49;;;;;;;1.65;0.85;;;;;;;8.62;100.00;99089.59;5068647;28;20106;-84
2024/03/29 07:32:15;;;;;;;0.73;0.60;;;;;;;8.63;100.00;99093.03;5076719;28;20032;-85
2024/03/29 07:34:41;;;;;;;0.75;0.75;;;;;;;8.64;100.00;99095.56;5064841;28;20229;-85
2024/03/29 07:37:06;;;;;;;0.68;0.68;;;;;;;8.71;100.00;99105.63;5062835;28;20289;-85
2024/03/29 07:39:32;;;;;;;2.28;1.20;;;;;;;8.74;100.00;99121.09;5068292;28;20056;-84
2024/03/29 07:41:57;;;;;;;1.50;1.13;;;;;;;8.80;100.00;99112.88;5074005;28;20042;-87
2024/03/29 07:44:23;;;;;;;1.17;1.00;;;;;;;8.85;100.00;99108.22;5064979;28;20036;-85
2024/03/29 07:46:48;;;;;;;1.85;1.35;;;;;;;8.89;100.00;99107.09;5056633;28;20351;-85
2024/03/29 07:49:14;;;;;;;1.13;1.10;;;;;;;8.92;100.00;99100.88;5062814;28;20365;-85
2024/03/29 07:51:39;;;;;;;1.70;1.10;;;;;;;8.96;100.00;99100.56;5077364;28;20032;-87
2024/03/29 07:54:05;;;;;;;4.30;1.50;;;;;;;8.98;100.00;99106.53;5062818;28;20048;-86
2024/03/29 07:56:31;;;;;;;2.90;1.48;;;;;;;9.00;100.00;99109.91;5069728;28;20466;-86
2024/03/29 07:58:56;;;;;;;1.92;1.50;;;;;;;9.02;100.00;99099.34;5072520;28;20277;-86
2024/03/29 08:01:22;;;;;;;1.73;1.50;;;;;;;9.07;100.00;99107.75;5065485;28;20060;-86
2024/03/29 08:03:51;;;;;;;2.65;1.45;;;;;;;9.13;100.00;99106.53;5056169;28;20537;-86
2024/03/29 08:06:18;;;;;;;1.75;1.65;;;;;;;9.15;100.00;99120.31;5055591;28;20029;-86
2024/03/29 08:08:43;;;;;;;2.40;1.48;;;;;;;9.17;100.00;99123.69;5056224;28;20441;-86
2024/03/29 08:11:10;;;;;;;2.17;1.30;;;;;;;9.18;100.00;99127.97;5056608;28;20020;-86
2024/03/29 08:13:35;;;;;;;2.03;1.65;;;;;;;9.23;100.00;99115.47;5073600;28;20333;-86
2024/03/29 08:16:01;;;;;;;1.70;1.48;;;;;;;9.23;100.00;99105.84;5068787;28;20342;-86
2024/03/29 08:18:28;;;;;;;2.22;2.03;;;;;;;9.23;100.00;99100.63;5063386;28;20211;-86
2024/03/29 08:20:57;;;;;;;2.75;1.67;;;;;;;9.25;100.00;99108.38;5063773;28;20359;-86
2024/03/29 08:23:22;;;;;;;2.03;1.80;;;;;;;9.28;100.00;99115.16;5067535;28;20190;-86
2024/03/29 08:25:48;;;;;;;1.63;1.50;;;;;;;9.30;100.00;99114.16;5066943;28;20039;-86
2024/03/29 08:28:14;;;;;;;6.97;1.35;;;;;;;9.37;100.00;99130.28;5066880;28;20058;-86
2024/03/29 08:30:40;;;;;;;1.65;1.40;;;;;;;9.43;100.00;99134.28;5069262;28;20347;-86
2024/03/29 08:33:05;;;;;;;2.53;2.10;;;;;;;9.46;100.00;99127.09;5045285;28;20108;-86
2024/03/29 08:35:32;;;;;;;2.45;1.85;;;;;;;9.45;100.00;99129.81;5073704;28;20055;-86
2024/03/29 08:37:58;;;;;;;2.05;1.55;;;;;;;9.46;100.00;99134.06;5075872;28;20043;-86
2024/03/29 08:40:24;;;;;;;1.98;1.70;;;;;;;9.48;100.00;99138.28;5062982;28;20031;-86
2024/03/29 08:42:50;;;;;;;1.50;1.40;;;;;;;9.51;100.00;99139.84;5054882;28;20028;-86
2024/03/29 08:45:15;;;;;;;1.38;1.10;;;;;;;9.51;100.00;99134.63;5069078;28;20028;-86
2024/03/29 08:47:41;;;;;;;2.63;1.20;;;;;;;9.52;100.00;99133.69;5053587;28;20247;-87
2024/03/29 08:50:06;;;;;;;1.08;0.90;;;;;;;9.48;100.00;99140.91;5058838;28;20023;-86
2024/03/29 08:52:32;;;;;;;1.63;0.95;;;;;;;9.46;100.00;99144.53;5069521;28;20070;-86
2024/03/29 08:54:57;;;;;;;1.80;1.10;;;;;;;9.50;100.00;99148.66;5064541;28;20077;-86
2024/03/29 08:57:22;;;;;;;1.00;0.88;;;;;;;9.53;100.00;99161.50;5069206;28;20037;-87
2024/03/29 08:59:48;;;;;;;1.27;1.00;;;;;;;9.56;100.00;99156.91;5047891;28;20031;-86
2024/03/29 09:02:13;;;;;;;0.73;0.73;;;;;;;9.64;100.00;99152.97;5056569;28;20040;-86
2024/03/29 09:04:38;;;;;;;1.02;0.98;;;;;;;9.69;100.00;99140.47;5062493;28;20028;-87
2024/03/29 09:07:04;;;;;;;1.13;0.75;;;;;;;9.72;100.00;99145.50;5062670;28;20051;-86
2024/03/29 09:09:32;;;;;;;0.70;0.70;;;;;;;9.74;100.00;99156.69;5060823;28;20099;-86
2024/03/29 09:11:59;;;;;;;1.63;0.80;;;;;;;9.73;100.00;99145.41;5066179;28;20104;-86
2024/03/29 09:14:24;;;;;;;2.75;0.85;;;;;;;9.75;100.00;99159.22;5052193;28;20056;-86
2024/03/29 09:16:50;;;;;;;1.25;0.85;;;;;;;9.77;100.00;99159.94;5066990;28;20012;-86
2024/03/29 09:19:16;;;;;;;1.20;0.70;;;;;;;9.78;100.00;99172.06;5068812;28;20028;-86
2024/03/29 09:21:41;;;;;;;0.80;0.80;;;;;;;9.79;100.00;99173.75;5065356;28;20029;-86
2024/03/29 09:24:06;;;;;;;0.93;0.90;;;;;;;9.83;100.00;99170.97;5067304;28;20082;-86
2024/03/29 09:26:35;;;;;;;2.05;1.25;;;;;;;9.84;100.00;99178.72;5062603;28;20154;-86
2024/03/29 09:29:00;;;;;;;1.77;0.80;;;;;;;9.81;100.00;99181.50;5065805;28;20063;-86
2024/03/29 09:31:25;;;;;;;0.60;0.60;;;;;;;9.84;100.00;99190.91;5062733;28;20044;-86
2024/03/29 09:33:57;;;;;;;1.23;1.00;;;;;;;9.90;100.00;99190.53;5062940;28;20287;-87
2024/03/29 09:36:23;;;;;;;0.70;0.65;;;;;;;9.93;100.00;99190.31;5050823;28;20109;-87
2024/03/29 09:38:50;;;;;;;0.80;0.80;;;;;;;9.99;100.00;99184.72;5066564;28;20227;-86
2024/03/29 09:41:17;;;;;;;1.10;0.90;;;;;;;10.04;100.00;99200.97;5069359;28;20046;-86
2024/03/29 09:43:46;;;;;;;0.90;0.90;;;;;;;10.10;100.00;99211.03;5069874;28;20039;-86
2024/03/29 09:46:16;;;;;;;2.50;0.82;;;;;;;10.15;100.00;99211.56;5071487;28;20298;-87
2024/03/29 09:48:42;;;;;;;3.92;0.95;;;;;;;10.20;100.00;99211.25;5068005;28;20031;-86
2024/03/29 09:51:09;;;;;;;1.20;0.98;;;;;;;10.26;100.00;99202.16;5071427;28;21234;-86
2024/03/29 09:53:37;;;;;;;2.38;0.90;;;;;;;10.33;100.00;99193.00;5065616;28;20033;-86
2024/03/29 09:56:07;;;;;;;2.95;1.23;;;;;;;10.34;100.00;99192.91;5069718;28;20043;-86
2024/03/29 09:58:37;;;;;;;2.22;1.30;;;;;;;10.32;100.00;99189.56;5068430;28;20216;-86
2024/03/29 10:01:04;;;;;;;1.23;0.93;;;;;;;10.29;100.00;99196.72;5066601;28;20032;-84
2024/03/29 10:03:31;;;;;;;3.08;1.10;;;;;;;10.25;100.00;99201.31;5066231;28;20051;-86
2024/03/29 10:05:58;;;;;;;1.95;1.33;;;;;;;10.24;100.00;99196.19;5067892;28;20043;-86
2024/03/29 10:08:26;;;;;;;1.92;1.40;;;;;;;10.25;100.00;99184.81;5062068;28;20383;-86
2024/03/29 10:10:53;;;;;;;1.42;1.33;;;;;;;10.30;100.00;99182.72;5062680;28;20047;-87
2024/03/29 10:13:19;;;;;;;1.45;1.35;;;;;;;10.31;100.00;99194.88;5062809;28;20029;-85
2024/03/29 10:15:49;;;;;;;2.53;1.50;;;;;;;10.28;100.00;99202.91;5063537;28;20039;-86
2024/03/29 10:18:14;;;;;;;1.92;1.40;;;;;;;10.29;100.00;99202.78;5064161;28;20340;-87
2024/03/29 10:20:41;;;;;;;1.58;1.48;;;;;;;10.30;100.00;99201.03;5063711;28;20032;-86
2024/03/29 10:23:07;;;;;;;2.08;1.90;;;;;;;10.33;100.00;99203.47;5065980;28;20033;-86
2024/03/29 10:25:36;;;;;;;2.15;1.55;;;;;;;10.39;100.00;99200.47;5064484;28;20028;-86
2024/03/29 10:28:04;;;;;;;1.60;1.50;;;;;;;10.42;100.00;99210.72;5066706;28;20217;-86
2024/03/29 10:30:30;;;;;;;1.65;1.55;;;;;;;10.42;100.00;99217.72;5063767;28;20037;-87
2024/03/29 10:32:58;;;;;;;2.55;2.10;;;;;;;10.43;100.00;99217.63;5064207;28;20059;-86
2024/03/29 10:35:26;;;;;;;1.65;1.40;;;;;;;10.44;100.00;99208.00;5050282;28;20347;-87
2024/03/29 10:37:55;;;;;;;1.40;1.30;;;;;;;10.53;100.00;99213.47;5065161;28;20328;-86
2024/03/29 10:40:25;;;;;;;2.92;1.48;;;;;;;10.50;99.08;99208.44;5066827;28;20400;-87
2024/03/29 10:42:52;;;;;;;2.28;1.50;;;;;;;10.55;99.47;99211.59;5066864;28;20028;-87
2024/03/29 10:45:17;;;;;;;1.45;1.35;;;;;;;10.56;97.87;99196.72;5066181;28;20036;-86
2024/03/29 10:47:44;;;;;;;2.10;1.38;;;;;;;10.63;97.28;99205.84;5062824;28;20042;-84
2024/03/29 10:50:13;;;;;;;1.60;1.50;;;;;;;10.74;97.39;99223.44;5046807;28;20039;-86
2024/03/29 10:52:41;;;;;;;;;;;;;;;10.76;96.27;99227.63;5066533;28;20371;-84
2024/03/29 10:55:11;;;;;;;1.60;1.50;;;;;;;10.84;96.43;99229.75;5067262;28;19908;-86
2024/03/29 10:57:40;;;;;;;1.90;1.40;;;;;;;10.85;95.86;99236.66;5064409;28;20016;-87
2024/03/29 11:00:18;;;;;;;2.08;1.67;;;;;;;10.89;95.79;99255.63;5064912;28;20287;-86
2024/03/29 11:03:08;;;;;;;1.65;1.55;;;;;;;10.97;95.98;99262.97;5064845;28;20025;-87
2024/03/29 11:05:35;;;;;;;1.55;1.42;;;;;;;10.97;95.55;99244.63;5065629;28;20029;-84
2024/03/29 11:08:07;;;;;;;1.67;1.58;;;;;;;11.01;94.21;99252.19;5065158;28;20353;-85
2024/03/29 11:10:43;;;;;;;2.20;1.80;;;;;;;11.06;94.71;99250.09;5052113;28;20029;-85
2024/03/29 11:13:26;;;;;;;2.03;1.70;;;;;;;11.07;92.71;99251.75;5063062;28;20251;-84
2024/03/29 11:15:52;;;;;;;5.20;1.90;;;;;;;11.11;93.65;99252.38;5065932;28;20039;-85
2024/03/29 11:18:19;;;;;;;2.13;1.75;;;;;;;11.15;94.22;99256.47;5063023;28;20029;-85
2024/03/29 11:20:52;;;;;;;3.97;1.80;;;;;;;11.16;92.82;99257.31;5064450;28;20119;-85
2024/03/29 11:23:20;;;;;;;1.83;1.73;;;;;;;11.15;93.52;99245.97;5065422;28;20346;-85
2024/03/29 11:25:49;;;;;;;2.33;2.13;;;;;;;11.18;92.99;99250.19;5066135;28;20090;-85
2024/03/29 11:28:21;;;;;;;3.58;2.00;;;;;;;11.24;93.70;99249.75;5071400;28;20053;-84
2024/03/29 11:30:47;;;;;;;4.13;2.70;;;;;;;11.31;93.92;99246.63;5066399;28;20032;-85
2024/03/29 11:33:26;;;;;;;2.90;2.65;;;;;;;11.42;94.71;99247.66;5065066;28;20296;-84
2024/03/29 11:35:51;;;;;;;2.60;2.40;;;;;;;11.40;91.40;99249.56;5067628;28;20040;-85
2024/03/29 11:38:17;;;;;;;2.97;2.20;;;;;;;11.37;90.66;99257.63;5068964;28;20399;-84
2024/03/29 11:40:53;;;;;;;4.07;2.30;;;;;;;11.45;91.54;99266.63;5068540;28;20336;-85